createdAt,value
2018-04-09T00:02:03.881Z,51.10
2018-04-09T00:04:32.202Z,52.00
2018-04-09T00:06:59.759Z,51.90
2018-04-09T00:09:27.327Z,53.80
2018-04-09T00:11:54.888Z,50.30
2018-04-09T00:14:22.467Z,51.50
2018-04-09T00:16:50.019Z,50.50
2018-04-09T00:19:18.544Z,50.50
2018-04-09T00:21:46.094Z,51.60
2018-04-09T00:24:13.672Z,54.10
2018-04-09T00:26:41.229Z,55.00
2018-04-09T00:29:08.807Z,51.60
2018-04-09T00:31:36.401Z,55.50
2018-04-09T00:34:03.942Z,53.10
2018-04-09T00:36:31.495Z,52.70
2018-04-09T00:38:59.071Z,54.40
2018-04-09T00:41:26.631Z,54.00
2018-04-09T00:43:54.227Z,52.00
2018-04-09T00:46:21.769Z,52.00
2018-04-09T00:48:50.107Z,53.70
2018-04-09T00:51:17.663Z,53.50
2018-04-09T00:54:02.070Z,55.00
2018-04-09T00:56:29.616Z,54.20
2018-04-09T00:58:57.200Z,54.10
2018-04-09T01:01:24.742Z,52.20
2018-04-09T01:03:53.091Z,54.60
2018-04-09T01:06:20.643Z,54.50
2018-04-09T01:08:48.222Z,53.00
2018-04-09T01:11:16.540Z,54.70
2018-04-09T01:13:44.092Z,54.50
2018-04-09T01:16:11.739Z,56.40
2018-04-09T01:18:39.287Z,54.80
2018-04-09T01:21:07.628Z,54.90
2018-04-09T01:23:35.174Z,54.80
2018-04-09T01:26:02.749Z,55.10
2018-04-09T01:28:30.294Z,56.10
2018-04-09T01:30:57.872Z,54.30
2018-04-09T01:33:25.431Z,54.50
2018-04-09T01:35:53.095Z,53.70
2018-04-09T01:38:20.666Z,52.90
2018-04-09T01:40:49.015Z,57.10
2018-04-09T01:43:16.561Z,57.00
2018-04-09T01:45:44.140Z,53.10
2018-04-09T01:48:11.690Z,55.70
2018-04-09T01:50:39.265Z,58.20
2018-04-09T01:53:06.962Z,53.30
2018-04-09T01:55:34.540Z,54.50
2018-04-09T01:58:02.200Z,54.50
2018-04-09T02:00:29.761Z,53.90
2018-04-09T02:02:57.312Z,54.50
2018-04-09T02:05:24.887Z,54.10
2018-04-09T02:07:52.429Z,57.90
2018-04-09T02:10:20.012Z,55.90
2018-04-09T02:12:47.566Z,57.60
2018-04-09T02:15:15.134Z,55.70
2018-04-09T02:17:42.685Z,52.90
2018-04-09T02:20:11.559Z,52.70
2018-04-09T02:22:39.116Z,55.50
2018-04-09T02:25:06.666Z,58.10
2018-04-09T02:27:34.246Z,54.30
2018-04-09T02:30:01.876Z,54.40
2018-04-09T02:32:29.446Z,55.50
2018-04-09T02:34:57.000Z,55.30
2018-04-09T02:37:24.573Z,55.50
2018-04-09T02:39:52.135Z,55.60
2018-04-09T02:42:19.717Z,54.30
2018-04-09T02:44:47.277Z,55.00
2018-04-09T02:47:14.851Z,54.40
2018-04-09T02:49:42.405Z,54.70
2018-04-09T02:52:09.975Z,54.90
2018-04-09T02:54:37.528Z,55.00
2018-04-09T02:57:05.101Z,53.00
2018-04-09T02:59:33.429Z,53.70
2018-04-09T03:02:01.003Z,53.70
2018-04-09T03:04:28.558Z,55.20
2018-04-09T03:06:56.142Z,54.90
2018-04-09T03:09:23.778Z,55.70
2018-04-09T03:11:52.059Z,53.70
2018-04-09T03:14:19.608Z,53.50
2018-04-09T03:16:47.184Z,55.40
2018-04-09T03:19:14.739Z,56.70
2018-04-09T03:21:42.322Z,57.30
2018-04-09T03:24:09.879Z,54.60
2018-04-09T03:26:37.496Z,54.50
2018-04-09T03:29:05.034Z,53.40
2018-04-09T03:31:32.626Z,55.90
2018-04-09T03:34:00.178Z,55.10
2018-04-09T03:36:27.739Z,56.70
2018-04-09T03:38:55.314Z,56.20
2018-04-09T03:41:22.887Z,55.20
2018-04-09T03:43:50.463Z,55.90
2018-04-09T03:46:18.771Z,54.60
2018-04-09T03:48:46.337Z,54.60
2018-04-09T03:51:13.893Z,54.50
2018-04-09T03:53:41.473Z,54.00
2018-04-09T03:56:09.791Z,57.10
2018-04-09T03:58:37.375Z,57.10
2018-04-09T04:01:04.935Z,51.90
2018-04-09T04:03:32.511Z,56.40
2018-04-09T04:06:00.068Z,53.00
2018-04-09T04:08:27.639Z,54.20
2018-04-09T04:10:55.185Z,55.10
2018-04-09T04:13:22.754Z,53.10
2018-04-09T04:16:02.130Z,56.80
2018-04-09T04:18:36.507Z,54.20
2018-04-09T04:21:15.906Z,55.60
2018-04-09T04:23:43.485Z,52.80
2018-04-09T04:26:11.049Z,57.20
2018-04-09T04:28:38.626Z,54.60
2018-04-09T04:31:06.181Z,54.90
2018-04-09T04:33:33.779Z,55.00
2018-04-09T04:36:02.108Z,55.10
2018-04-09T04:38:29.691Z,54.50
2018-04-09T04:40:57.239Z,55.40
2018-04-09T04:43:25.577Z,55.90
2018-04-09T04:45:53.126Z,55.90
2018-04-09T04:48:20.710Z,56.30
2018-04-09T04:50:48.272Z,56.40
2018-04-09T04:53:15.821Z,56.80
2018-04-09T04:55:43.394Z,56.50
2018-04-09T04:58:10.944Z,58.40
2018-04-09T05:00:38.522Z,54.50
2018-04-09T05:03:06.083Z,57.00
2018-04-09T05:05:33.664Z,55.50
2018-04-09T05:08:01.219Z,56.90
2018-04-09T05:10:28.798Z,60.10
2018-04-09T05:12:56.351Z,54.90
2018-04-09T05:15:23.921Z,57.80
2018-04-09T05:17:52.245Z,57.40
2018-04-09T05:20:19.823Z,57.20
2018-04-09T05:22:47.382Z,58.50
2018-04-09T05:25:15.720Z,57.20
2018-04-09T05:27:43.278Z,57.80
2018-04-09T05:30:10.855Z,56.80
2018-04-09T05:32:38.407Z,55.90
2018-04-09T05:35:05.984Z,54.60
2018-04-09T05:37:33.530Z,55.00
2018-04-09T05:40:01.103Z,58.10
2018-04-09T05:42:28.649Z,60.10
2018-04-09T05:44:56.223Z,57.40
2018-04-09T05:47:23.826Z,58.90
2018-04-09T05:49:52.168Z,59.50
2018-04-09T05:52:19.723Z,59.30
2018-04-09T05:54:47.315Z,57.20
2018-04-09T05:57:14.866Z,56.10
2018-04-09T05:59:42.443Z,56.90
2018-04-09T06:02:10.774Z,57.10
2018-04-09T06:04:38.361Z,57.00
2018-04-09T06:07:05.912Z,56.50
2018-04-09T06:09:33.464Z,54.40
2018-04-09T06:12:01.161Z,58.10
2018-04-09T06:14:28.715Z,58.60
2018-04-09T06:16:57.053Z,60.70
2018-04-09T06:19:24.598Z,60.70
2018-04-09T06:21:52.167Z,59.20
2018-04-09T06:24:20.478Z,58.80
2018-04-09T06:26:49.035Z,58.70
2018-04-09T06:29:16.588Z,56.60
2018-04-09T06:31:44.167Z,57.30
2018-04-09T06:34:11.710Z,57.60
2018-04-09T06:36:39.290Z,62.10
2018-04-09T06:39:06.855Z,59.60
2018-04-09T06:41:35.217Z,60.90
2018-04-09T06:44:02.775Z,60.80
2018-04-09T06:46:30.389Z,59.60
2018-04-09T06:48:57.926Z,58.80
2018-04-09T06:51:25.510Z,60.30
2018-04-09T06:53:53.067Z,61.90
2018-04-09T06:56:20.638Z,59.80
2018-04-09T06:58:48.199Z,57.00
2018-04-09T07:01:15.777Z,54.90
2018-04-09T07:03:43.344Z,60.00
2018-04-09T07:06:10.914Z,59.30
2018-04-09T07:08:39.544Z,60.10
2018-04-09T07:11:07.135Z,59.90
2018-04-09T07:13:36.191Z,60.30
2018-04-09T07:16:03.761Z,60.80
2018-04-09T07:18:31.328Z,58.00
2018-04-09T07:20:58.894Z,57.90
2018-04-09T07:23:26.446Z,57.90
2018-04-09T07:25:54.175Z,58.40
2018-04-09T07:28:21.731Z,59.00
2018-04-09T07:30:49.284Z,57.60
2018-04-09T07:33:16.866Z,56.10
2018-04-09T07:35:44.412Z,55.70
2018-04-09T07:38:11.984Z,55.90
2018-04-09T07:40:39.542Z,57.30
2018-04-09T07:43:07.120Z,54.80
2018-04-09T07:45:35.442Z,54.70
2018-04-09T07:48:03.023Z,55.20
2018-04-09T07:50:30.574Z,54.40
2018-04-09T07:52:58.906Z,55.90
2018-04-09T07:55:26.459Z,55.90
2018-04-09T07:57:54.042Z,54.50
2018-04-09T08:00:21.603Z,54.70
2018-04-09T08:02:49.179Z,54.40
2018-04-09T08:05:16.725Z,53.20
2018-04-09T08:07:45.066Z,52.70
2018-04-09T08:10:13.387Z,52.30
2018-04-09T08:12:40.967Z,52.30
2018-04-09T08:15:08.529Z,52.40
2018-04-09T08:17:36.105Z,52.50
2018-04-09T08:20:03.655Z,52.00
2018-04-09T08:22:31.464Z,52.30
2018-04-09T08:24:59.025Z,52.40
2018-04-09T08:27:26.600Z,52.00
2018-04-09T08:29:54.163Z,51.80
2018-04-09T08:32:22.579Z,50.80
2018-04-09T08:34:50.131Z,50.80
2018-04-09T08:37:17.687Z,51.20
2018-04-09T08:39:45.304Z,51.00
2018-04-09T08:42:12.847Z,49.90
2018-04-09T08:44:40.422Z,50.30
2018-04-09T08:47:07.973Z,49.60
2018-04-09T08:49:35.555Z,49.70
2018-04-09T08:52:03.992Z,49.00
2018-04-09T08:54:31.570Z,49.00
2018-04-09T08:56:59.131Z,48.90
2018-04-09T08:59:26.739Z,48.70
2018-04-09T09:01:54.293Z,48.20
2018-04-09T09:04:21.885Z,48.80
2018-04-09T09:06:49.429Z,47.10
2018-04-09T09:09:17.007Z,46.10
2018-04-09T09:11:46.212Z,46.40
2018-04-09T09:14:13.792Z,44.20
2018-04-09T09:16:41.571Z,42.90
2018-04-09T09:19:09.147Z,44.70
2018-04-09T09:21:36.703Z,44.60
2018-04-09T09:24:04.369Z,45.70
2018-04-09T09:26:31.926Z,47.10
2018-04-09T09:28:59.509Z,45.20
2018-04-09T09:31:27.082Z,46.40
2018-04-09T09:33:54.668Z,45.00
2018-04-09T09:36:22.218Z,45.90
2018-04-09T09:38:49.801Z,45.70
2018-04-09T09:41:18.123Z,45.70
2018-04-09T09:43:45.705Z,45.80
2018-04-09T09:46:13.250Z,45.20
2018-04-09T09:48:40.799Z,45.90
2018-04-09T09:51:08.380Z,45.40
2018-04-09T09:53:35.938Z,45.20
2018-04-09T09:56:03.514Z,45.40
2018-04-09T09:58:31.078Z,46.70
2018-04-09T10:01:01.596Z,46.80
2018-04-09T10:03:29.191Z,46.60
2018-04-09T10:05:56.769Z,46.70
2018-04-09T10:08:24.337Z,46.50
2018-04-09T10:10:51.914Z,47.40
2018-04-09T10:13:19.476Z,46.70
2018-04-09T10:15:47.063Z,46.10
2018-04-09T10:18:15.387Z,46.30
2018-04-09T10:20:42.959Z,46.20
2018-04-09T10:23:10.511Z,46.20
2018-04-09T10:25:38.088Z,46.00
2018-04-09T10:28:05.647Z,45.20
2018-04-09T10:30:33.254Z,45.60
2018-04-09T10:33:01.019Z,45.60
2018-04-09T10:35:28.607Z,46.70
2018-04-09T10:37:56.160Z,45.50
2018-04-09T10:40:23.738Z,47.00
2018-04-09T10:42:51.295Z,45.70
2018-04-09T10:45:18.872Z,46.50
2018-04-09T10:47:46.413Z,45.50
2018-04-09T10:50:13.987Z,46.50
2018-04-09T10:52:41.547Z,46.40
2018-04-09T10:55:09.131Z,45.20
2018-04-09T10:57:37.472Z,46.00
2018-04-09T11:00:05.022Z,46.00
2018-04-09T11:02:32.623Z,45.10
2018-04-09T11:05:00.174Z,44.90
2018-04-09T11:07:27.763Z,44.70
2018-04-09T11:09:55.306Z,45.70
2018-04-09T11:12:22.878Z,45.70
2018-04-09T11:14:50.436Z,45.80
2018-04-09T11:17:18.778Z,44.50
2018-04-09T11:19:46.337Z,44.50
2018-04-09T11:22:13.907Z,44.10
2018-04-09T11:24:42.232Z,45.20
2018-04-09T11:27:09.798Z,45.20
2018-04-09T11:29:37.349Z,44.50
2018-04-09T11:32:04.914Z,43.70
2018-04-09T11:34:32.457Z,44.40
2018-04-09T11:37:00.040Z,44.90
2018-04-09T11:39:27.589Z,44.20
2018-04-09T11:41:55.165Z,44.30
2018-04-09T11:44:22.746Z,43.40
2018-04-09T11:46:51.072Z,43.30
2018-04-09T11:49:18.620Z,43.40
2018-04-09T11:51:46.203Z,43.50
2018-04-09T11:54:13.749Z,43.40
2018-04-09T11:56:41.316Z,44.20
2018-04-09T11:59:09.026Z,43.50
2018-04-09T12:01:36.605Z,42.50
2018-04-09T12:04:04.927Z,44.20
2018-04-09T12:06:32.502Z,44.10
2018-04-09T12:09:00.051Z,43.70
2018-04-09T12:11:28.392Z,42.40
2018-04-09T12:13:55.946Z,42.50
2018-04-09T12:16:23.496Z,44.00
2018-04-09T12:18:51.088Z,44.80
2018-04-09T12:21:18.933Z,44.20
2018-04-09T12:23:46.505Z,44.50
2018-04-09T12:26:14.053Z,44.50
2018-04-09T12:28:41.635Z,44.40
2018-04-09T12:31:09.194Z,44.20
2018-04-09T12:33:36.757Z,42.20
2018-04-09T12:36:04.322Z,43.20
2018-04-09T12:38:31.893Z,44.20
2018-04-09T12:40:59.489Z,43.20
2018-04-09T12:43:27.067Z,42.80
2018-04-09T12:45:54.625Z,43.00
2018-04-09T12:48:22.205Z,43.40
2018-04-09T12:50:49.744Z,43.60
2018-04-09T12:53:17.308Z,43.30
2018-04-09T12:55:44.853Z,44.20
2018-04-09T12:58:12.413Z,44.50
2018-04-09T13:00:39.956Z,43.20
2018-04-09T13:03:08.293Z,43.30
2018-04-09T13:05:35.879Z,43.20
2018-04-09T13:08:03.457Z,43.30
2018-04-09T13:10:32.632Z,43.20
2018-04-09T13:13:00.208Z,43.20
2018-04-09T13:15:28.525Z,43.60
2018-04-09T13:17:56.089Z,43.60
2018-04-09T13:20:23.681Z,43.90
2018-04-09T13:22:51.231Z,43.50
2018-04-09T13:25:18.799Z,44.10
2018-04-09T13:27:46.338Z,43.40
2018-04-09T13:30:14.672Z,44.60
2018-04-09T13:32:42.224Z,44.50
2018-04-09T13:35:09.807Z,44.00
2018-04-09T13:37:37.362Z,44.10
2018-04-09T13:40:04.937Z,42.70
2018-04-09T13:42:32.487Z,44.00
2018-04-09T13:45:00.061Z,44.40
2018-04-09T13:47:28.375Z,44.10
2018-04-09T13:49:56.714Z,43.90
2018-04-09T13:52:24.267Z,43.90
2018-04-09T13:54:52.605Z,45.00
2018-04-09T13:57:20.173Z,44.10
2018-04-09T13:59:47.749Z,44.20
2018-04-09T14:02:15.298Z,43.30
2018-04-09T14:04:42.873Z,44.10
2018-04-09T14:07:10.424Z,44.60
2018-04-09T14:09:37.997Z,44.70
2018-04-09T14:12:05.553Z,44.50
2018-04-09T14:14:33.132Z,44.50
2018-04-09T14:17:00.688Z,45.20
2018-04-09T14:19:28.261Z,45.20
2018-04-09T14:21:55.807Z,44.90
2018-04-09T14:24:23.384Z,45.10
2018-04-09T14:26:50.934Z,44.80
2018-04-09T14:29:18.480Z,45.10
2018-04-09T14:31:46.090Z,44.50
2018-04-09T14:34:13.644Z,45.20
2018-04-09T14:36:41.236Z,45.50
2018-04-09T14:39:08.789Z,45.50
2018-04-09T14:41:36.357Z,45.60
2018-04-09T14:44:03.908Z,45.70
2018-04-09T14:46:31.481Z,45.50
2018-04-09T14:48:59.033Z,45.60
2018-04-09T14:51:26.606Z,45.70
2018-04-09T14:53:54.160Z,45.90
2018-04-09T14:56:21.737Z,45.50
2018-04-09T14:58:49.289Z,45.70
2018-04-09T15:01:16.863Z,45.70
2018-04-09T15:03:44.408Z,45.50
2018-04-09T15:06:11.980Z,45.30
2018-04-09T15:08:39.536Z,45.30
2018-04-09T15:11:07.121Z,45.10
2018-04-09T15:13:35.439Z,45.10
2018-04-09T15:16:03.009Z,45.10
2018-04-09T15:18:30.566Z,45.50
2018-04-09T15:20:58.140Z,45.60
2018-04-09T15:23:25.691Z,45.50
2018-04-09T15:25:53.436Z,45.50
2018-04-09T15:28:21.025Z,45.40
2018-04-09T15:30:48.602Z,45.90
2018-04-09T15:33:16.156Z,45.90
2018-04-09T15:35:43.723Z,45.80
2018-04-09T15:38:12.060Z,45.70
2018-04-09T15:40:39.622Z,45.70
2018-04-09T15:43:07.200Z,45.50
2018-04-09T15:45:34.750Z,45.90
2018-04-09T15:48:02.324Z,45.70
2018-04-09T15:50:29.889Z,45.60
2018-04-09T15:52:57.460Z,45.50
2018-04-09T15:55:25.770Z,45.50
2018-04-09T15:57:53.396Z,45.50
2018-04-09T16:00:20.954Z,45.40
2018-04-09T16:02:48.537Z,45.50
2018-04-09T16:05:16.092Z,45.70
2018-04-09T16:07:43.681Z,45.70
2018-04-09T16:10:11.243Z,45.40
2018-04-09T16:12:38.813Z,45.70
2018-04-09T16:15:06.365Z,45.80
2018-04-09T16:20:28.751Z,45.70
2018-04-09T16:22:56.334Z,45.70
2018-04-09T16:25:23.893Z,46.00
2018-04-09T16:27:51.464Z,46.10
2018-04-09T16:30:19.023Z,46.10
2018-04-09T16:32:46.594Z,46.30
2018-04-09T16:35:14.154Z,46.40
2018-04-09T16:37:41.732Z,46.60
2018-04-09T16:40:09.285Z,46.90
2018-04-09T16:42:36.836Z,46.70
2018-04-09T16:45:05.007Z,46.50
2018-04-09T16:47:33.032Z,46.90
2018-04-09T16:50:00.648Z,46.50
2018-04-09T16:52:28.206Z,46.70
2018-04-09T16:54:56.539Z,47.10
2018-04-09T16:57:24.856Z,47.40
2018-04-09T16:59:52.429Z,47.40
2018-04-09T17:02:19.977Z,49.80
2018-04-09T17:04:47.546Z,50.20
2018-04-09T17:07:15.092Z,48.40
2018-04-09T17:09:43.562Z,49.30
2018-04-09T17:12:11.193Z,50.40
2018-04-09T17:14:38.783Z,50.00
2018-04-09T17:17:06.333Z,49.70
2018-04-09T17:19:33.904Z,49.60
2018-04-09T17:22:01.463Z,50.20
2018-04-09T17:24:29.033Z,50.10
2018-04-09T17:26:56.621Z,51.20
2018-04-09T17:29:24.196Z,50.50
2018-04-09T17:31:53.253Z,50.90
2018-04-09T17:34:20.836Z,50.80
2018-04-09T17:36:48.398Z,51.30
2018-04-09T17:39:16.828Z,52.10
2018-04-09T17:41:44.404Z,51.90
2018-04-09T17:44:11.981Z,52.80
2018-04-09T17:46:39.549Z,51.60
2018-04-09T17:49:07.787Z,53.90
2018-04-09T17:51:35.414Z,51.30
2018-04-09T17:54:03.046Z,52.40
2018-04-09T17:56:31.099Z,52.80
2018-04-09T17:58:58.716Z,52.90
2018-04-09T18:01:27.663Z,51.40
2018-04-09T18:03:55.269Z,52.20
2018-04-09T18:06:22.845Z,50.90
2018-04-09T18:08:50.600Z,53.80
2018-04-09T18:11:18.176Z,52.10
2018-04-09T18:13:45.728Z,52.80
2018-04-09T18:16:13.317Z,53.50
2018-04-09T18:18:40.876Z,55.10
2018-04-09T18:21:08.448Z,54.70
2018-04-09T18:23:35.997Z,54.30
2018-04-09T18:26:03.568Z,54.20
2018-04-09T18:28:31.138Z,54.80
2018-04-09T18:31:00.045Z,54.10
2018-04-09T18:33:27.940Z,53.90
2018-04-09T18:35:56.155Z,53.00
2018-04-09T18:38:24.776Z,53.50
2018-04-09T18:40:53.549Z,56.20
2018-04-09T18:43:22.053Z,56.20
2018-04-09T18:45:50.453Z,56.50
2018-04-09T18:48:18.060Z,54.40
2018-04-09T18:50:45.883Z,54.30
2018-04-09T18:53:13.437Z,54.50
2018-04-09T18:55:41.178Z,54.70
2018-04-09T18:58:08.735Z,54.60
2018-04-09T19:00:36.315Z,52.70
2018-04-09T19:03:03.868Z,55.00
2018-04-09T19:05:31.441Z,56.10
2018-04-09T19:07:59.357Z,53.50
2018-04-09T19:10:26.905Z,53.90
2018-04-09T19:12:55.241Z,55.10
2018-04-09T19:15:22.800Z,55.60
2018-04-09T19:17:51.135Z,57.70
2018-04-09T19:20:18.680Z,57.70
2018-04-09T19:22:46.256Z,57.40
2018-04-09T19:25:13.803Z,57.90
2018-04-09T19:27:41.377Z,59.30
2018-04-09T19:30:08.924Z,55.70
2018-04-09T19:32:36.501Z,58.20
2018-04-09T19:35:08.828Z,58.10
2018-04-09T19:37:43.424Z,55.30
2018-04-09T19:40:16.669Z,55.60
2018-04-09T19:42:44.245Z,56.30
2018-04-09T19:45:11.784Z,58.10
2018-04-09T19:47:39.359Z,55.90
2018-04-09T19:50:06.904Z,56.60
2018-04-09T19:52:34.487Z,55.80
2018-04-09T19:55:02.057Z,56.10
2018-04-09T19:57:29.630Z,55.80
2018-04-09T19:59:57.185Z,56.80
2018-04-09T20:02:24.760Z,57.10
2018-04-09T20:04:52.317Z,57.70
2018-04-09T20:07:19.888Z,57.10
2018-04-09T20:09:48.421Z,57.40
2018-04-09T20:12:15.988Z,58.30
2018-04-09T20:14:43.561Z,58.20
2018-04-09T20:17:11.117Z,56.40
2018-04-09T20:19:38.704Z,57.10
2018-04-09T20:22:06.270Z,57.10
2018-04-09T20:24:33.860Z,58.60
2018-04-09T20:27:01.408Z,56.60
2018-04-09T20:29:28.982Z,59.60
2018-04-09T20:31:56.538Z,56.70
2018-04-09T20:34:24.113Z,57.10
2018-04-09T20:36:51.664Z,59.40
2018-04-09T20:39:19.242Z,61.20
2018-04-09T20:41:46.792Z,57.90
2018-04-09T20:44:14.362Z,61.40
2018-04-09T20:46:41.922Z,59.90
2018-04-09T20:49:09.504Z,57.60
2018-04-09T20:51:37.052Z,61.10
2018-04-09T20:54:04.626Z,59.80
2018-04-09T20:56:32.200Z,59.10
2018-04-09T20:58:59.777Z,57.30
2018-04-09T21:01:27.337Z,60.60
2018-04-09T21:03:54.914Z,58.10
2018-04-09T21:06:22.466Z,60.70
2018-04-09T21:08:50.035Z,59.30
2018-04-09T21:11:17.589Z,57.40
2018-04-09T21:13:45.165Z,59.80
2018-04-09T21:16:12.708Z,57.60
2018-04-09T21:18:40.281Z,59.00
2018-04-09T21:21:07.828Z,56.90
2018-04-09T21:23:35.400Z,61.00
2018-04-09T21:26:02.948Z,60.40
2018-04-09T21:28:30.524Z,57.80
2018-04-09T21:30:58.101Z,59.30
2018-04-09T21:33:25.632Z,60.60
2018-04-09T21:35:53.218Z,60.10
2018-04-09T21:38:20.774Z,59.50
2018-04-09T21:40:48.354Z,61.30
2018-04-09T21:43:16.678Z,60.10
2018-04-09T21:45:44.320Z,60.00
2018-04-09T21:48:11.881Z,62.80
2018-04-09T21:50:39.468Z,58.90
2018-04-09T21:53:07.212Z,57.10
2018-04-09T21:55:34.825Z,57.60
2018-04-09T21:58:02.388Z,56.80
2018-04-09T22:00:30.737Z,60.10
2018-04-09T22:02:58.324Z,59.90
2018-04-09T22:05:25.905Z,62.60
2018-04-09T22:07:53.488Z,61.20
2018-04-09T22:10:21.088Z,63.40
2018-04-09T22:12:48.641Z,61.30
2018-04-09T22:15:16.258Z,57.50
2018-04-09T22:17:43.824Z,60.30
2018-04-09T22:20:11.396Z,57.60
2018-04-09T22:22:38.953Z,58.90
2018-04-09T22:25:06.560Z,57.30
2018-04-09T22:27:35.165Z,59.60
2018-04-09T22:30:02.720Z,59.40
2018-04-09T22:32:30.308Z,58.70
2018-04-09T22:34:57.866Z,58.50
2018-04-09T22:37:25.439Z,59.90
2018-04-09T22:39:53.019Z,61.40
2018-04-09T22:42:20.611Z,61.70
2018-04-09T22:44:48.172Z,61.40
2018-04-09T22:47:15.753Z,61.90
2018-04-09T22:49:43.338Z,59.60
2018-04-09T22:52:10.914Z,58.50
2018-04-09T22:54:38.476Z,58.90
2018-04-09T22:57:06.046Z,59.80
2018-04-09T22:59:33.604Z,61.40
2018-04-09T23:02:01.195Z,63.20
2018-04-09T23:04:28.762Z,61.10
2018-04-09T23:06:57.120Z,61.90
2018-04-09T23:09:24.671Z,59.10
2018-04-09T23:11:52.294Z,59.90
2018-04-09T23:14:19.856Z,58.90
2018-04-09T23:16:47.437Z,59.00
2018-04-09T23:19:15.747Z,58.90
2018-04-09T23:21:43.358Z,58.70
2018-04-09T23:24:10.913Z,61.60
2018-04-09T23:26:38.496Z,58.80
2018-04-09T23:29:06.814Z,61.00
2018-04-09T23:31:34.359Z,60.80
2018-04-09T23:34:01.928Z,62.10
2018-04-09T23:36:29.491Z,62.30
2018-04-09T23:38:57.078Z,61.00
2018-04-09T23:41:24.629Z,60.10
2018-04-09T23:43:52.480Z,61.10
2018-04-09T23:46:20.054Z,59.30
2018-04-09T23:48:47.629Z,63.80
2018-04-09T23:51:15.182Z,63.70
2018-04-09T23:53:42.760Z,59.60
2018-04-09T23:56:10.320Z,63.10
2018-04-09T23:58:37.907Z,62.60
